Time;durP1;ratioP1;P1;durP2;ratioP2;P2;SDS_P1;SDS_P2;PMS_P1;PMS_P2;Temp;Humidity;BMP_temperature;BMP_pressure;BME280_temperature;BME280_humidity;BME280_pressure;Samples;Min_cycle;Max_cycle;Signal;HPM_P1;HPM_P2
2021/01/04 03:30:06;;;;;;;;;;;;;;;;;;;;;
2021/01/04 03:54:05;;;;;;;41.90;32.83;;;3.30;99.90;;;;;;4959235;28;20457;-86
2021/01/04 03:56:33;;;;;;;36.80;30.37;;;3.30;99.90;;;;;;4972865;29;20460;-85
2021/01/04 03:58:59;;;;;;;44.43;33.60;;;3.40;99.90;;;;;;4952600;29;20452;-87
2021/01/04 04:01:25;;;;;;;40.43;32.40;;;3.30;99.90;;;;;;4952437;29;20531;-83
2021/01/04 04:03:52;;;;;;;37.47;32.60;;;3.30;99.90;;;;;;4952516;29;20833;-85
2021/01/04 04:06:18;;;;;;;37.03;33.00;;;3.30;99.90;;;;;;4952282;29;20484;-83
2021/01/04 04:08:44;;;;;;;36.53;31.80;;;3.30;99.90;;;;;;4952271;29;20469;-85
2021/01/04 04:11:15;;;;;;;35.57;31.73;;;3.30;99.90;;;;;;4953972;29;20452;-89
2021/01/04 04:13:41;;;;;;;39.77;34.00;;;3.30;99.90;;;;;;4953621;29;20457;-89
2021/01/04 04:16:07;;;;;;;41.90;36.30;;;3.20;99.90;;;;;;4952302;29;20457;-84
2021/01/04 04:18:33;;;;;;;41.37;33.30;;;3.30;99.90;;;;;;4951855;29;20449;-84
2021/01/04 04:20:59;;;;;;;38.97;33.20;;;3.30;99.90;;;;;;4951644;29;20458;-84
2021/01/04 04:23:25;;;;;;;37.03;32.53;;;3.30;99.90;;;;;;4951827;29;20455;-84
2021/01/04 04:25:51;;;;;;;35.60;31.03;;;3.40;99.90;;;;;;4951985;29;20546;-84
2021/01/04 04:28:18;;;;;;;38.87;34.03;;;3.20;99.90;;;;;;4951878;28;20472;-85
2021/01/04 04:30:45;;;;;;;42.60;35.50;;;3.30;99.90;;;;;;4952726;28;20890;-86
2021/01/04 04:33:11;;;;;;;36.23;32.23;;;3.20;99.90;;;;;;4955544;28;20550;-86
2021/01/04 04:35:37;;;;;;;41.97;36.47;;;3.30;99.90;;;;;;4955571;28;20456;-85
2021/01/04 04:38:03;;;;;;;42.37;34.67;;;3.40;99.90;;;;;;4956051;28;20453;-84
2021/01/04 04:40:32;;;;;;;38.60;34.47;;;3.40;99.90;;;;;;4955713;28;20475;-88
2021/01/04 04:43:09;;;;;;;40.93;34.17;;;3.50;99.90;;;;;;4955729;28;20472;-86
2021/01/04 04:45:36;;;;;;;39.03;32.23;;;3.40;99.90;;;;;;4955397;28;20496;-86
2021/01/04 04:48:34;;;;;;;37.27;33.13;;;3.40;99.90;;;;;;4956112;28;20820;-86
2021/01/04 04:51:38;;;;;;;37.90;33.50;;;3.30;99.90;;;;;;4954471;28;20448;-84
2021/01/04 04:54:41;;;;;;;35.90;32.00;;;3.30;99.90;;;;;;4974493;28;20960;-86
2021/01/04 04:57:39;;;;;;;37.97;33.87;;;3.40;99.90;;;;;;4975116;28;20868;-84
2021/01/04 05:00:33;;;;;;;35.77;32.00;;;3.50;99.90;;;;;;4975218;28;20465;-86
2021/01/04 05:03:23;;;;;;;37.67;31.33;;;3.50;99.90;;;;;;4972348;28;20467;-86
2021/01/04 05:06:04;;;;;;;39.30;33.97;;;3.40;99.90;;;;;;4974120;28;20586;-81
2021/01/04 05:08:55;;;;;;;37.57;33.50;;;3.30;99.90;;;;;;4974216;28;20952;-82
2021/01/04 05:11:29;;;;;;;38.47;33.93;;;3.20;99.90;;;;;;4974100;28;20953;-82
2021/01/04 05:13:58;;;;;;;34.27;30.47;;;3.40;99.90;;;;;;4972459;28;20462;-82
2021/01/04 05:16:38;;;;;;;36.57;32.80;;;3.50;99.90;;;;;;4974020;28;20466;-82
2021/01/04 05:19:31;;;;;;;42.50;34.80;;;3.50;99.90;;;;;;4973951;28;20459;-82
2021/01/04 05:22:36;;;;;;;43.17;33.97;;;3.50;99.90;;;;;;4973965;28;20464;-85
2021/01/04 05:25:47;;;;;;;36.77;32.87;;;3.40;99.90;;;;;;4974431;28;20491;-83
2021/01/04 05:28:53;;;;;;;41.80;33.90;;;3.50;99.90;;;;;;4974103;28;20512;-82
2021/01/04 05:31:48;;;;;;;36.37;32.37;;;3.20;99.90;;;;;;4974467;28;20449;-82
2021/01/04 05:34:24;;;;;;;36.73;30.90;;;3.40;99.90;;;;;;4974175;28;20499;-82
2021/01/04 05:37:41;;;;;;;35.43;31.43;;;3.40;99.90;;;;;;4973653;28;20451;-81
2021/01/04 05:40:28;;;;;;;39.57;33.03;;;3.40;99.90;;;;;;4913938;29;20862;-85
2021/01/04 05:43:08;;;;;;;35.33;30.70;;;3.50;99.90;;;;;;4973693;28;20452;-85
2021/01/04 05:45:39;;;;;;;37.67;33.30;;;3.40;99.90;;;;;;4973644;28;20811;-84
2021/01/04 05:48:15;;;;;;;38.63;32.33;;;3.30;99.90;;;;;;4973788;28;20922;-85
2021/01/04 05:50:53;;;;;;;37.13;32.30;;;3.30;99.90;;;;;;4973658;28;20462;-85
2021/01/04 05:53:19;;;;;;;43.40;34.70;;;3.30;99.90;;;;;;4973358;28;20488;-85
2021/01/04 05:55:46;;;;;;;37.93;33.57;;;3.40;99.90;;;;;;4973703;28;20452;-85
2021/01/04 05:58:15;;;;;;;44.43;34.63;;;3.40;99.90;;;;;;4973523;28;20813;-85
2021/01/04 06:00:41;;;;;;;37.70;31.70;;;3.30;99.90;;;;;;4973326;28;20452;-80
2021/01/04 06:03:10;;;;;;;38.57;34.33;;;3.30;99.90;;;;;;4973104;28;20458;-80
2021/01/04 06:05:37;;;;;;;44.90;35.87;;;3.40;99.90;;;;;;4973703;28;20494;-80
2021/01/04 06:08:05;;;;;;;35.77;31.97;;;3.30;99.90;;;;;;4973407;28;20457;-81
2021/01/04 06:10:34;;;;;;;37.80;33.80;;;3.30;99.90;;;;;;4973445;28;20462;-81
2021/01/04 06:13:02;;;;;;;42.43;32.80;;;3.30;99.90;;;;;;4973281;28;20451;-82
2021/01/04 06:15:32;;;;;;;43.83;34.20;;;3.40;99.90;;;;;;4973039;28;20452;-82
2021/01/04 06:18:05;;;;;;;37.87;33.80;;;3.40;99.90;;;;;;4975532;28;20451;-87
2021/01/04 06:21:07;;;;;;;37.60;31.77;;;3.50;99.90;;;;;;4973618;28;20514;-87
2021/01/04 06:23:36;;;;;;;36.93;32.93;;;3.30;99.90;;;;;;4973212;28;20513;-87
2021/01/04 06:26:05;;;;;;;43.30;33.07;;;3.20;99.90;;;;;;4973199;28;21011;-87
2021/01/04 06:28:44;;;;;;;37.43;33.50;;;3.20;99.90;;;;;;4973163;28;20476;-88
2021/01/04 06:31:14;;;;;;;36.77;32.77;;;3.40;99.90;;;;;;4973147;28;20617;-88
2021/01/04 06:33:41;;;;;;;40.63;32.67;;;3.40;99.90;;;;;;4973906;28;20441;-86
2021/01/04 06:36:15;;;;;;;38.17;32.90;;;3.50;99.90;;;;;;4973217;28;20838;-86
2021/01/04 06:38:44;;;;;;;35.83;31.80;;;3.50;99.90;;;;;;4972498;28;20502;-84
2021/01/04 06:41:13;;;;;;;51.83;33.10;;;3.40;99.90;;;;;;4972744;28;20683;-84
2021/01/04 06:43:39;;;;;;;46.10;34.17;;;3.30;99.90;;;;;;4972563;28;20640;-85
2021/01/04 06:46:26;;;;;;;37.80;33.63;;;3.20;99.90;;;;;;4972415;28;20487;-84
2021/01/04 06:48:58;;;;;;;36.50;30.30;;;3.30;99.90;;;;;;4972620;28;20447;-85
2021/01/04 06:51:46;;;;;;;38.93;32.63;;;3.40;99.90;;;;;;4972373;28;20480;-85
2021/01/04 06:54:32;;;;;;;37.50;33.50;;;3.40;99.90;;;;;;4971681;28;20458;-85
2021/01/04 06:57:26;;;;;;;38.90;33.40;;;3.40;99.90;;;;;;4972510;28;20456;-84
2021/01/04 07:00:11;;;;;;;41.03;33.60;;;3.50;99.90;;;;;;4972355;28;20459;-85
2021/01/04 07:03:17;;;;;;;35.93;31.90;;;3.40;99.90;;;;;;4972374;28;20461;-85
2021/01/04 07:06:20;;;;;;;40.43;32.60;;;3.50;99.90;;;;;;4972509;28;20495;-84
2021/01/04 07:09:19;;;;;;;40.53;32.03;;;3.40;99.90;;;;;;4972645;28;20498;-85
2021/01/04 07:11:48;;;;;;;39.03;32.50;;;3.40;99.90;;;;;;4972379;28;20467;-85
2021/01/04 07:14:40;;;;;;;43.23;34.17;;;3.40;99.90;;;;;;4972141;28;20445;-84
2021/01/04 07:17:25;;;;;;;39.33;32.70;;;3.40;99.90;;;;;;4972202;28;20518;-84
2021/01/04 07:20:26;;;;;;;40.80;33.50;;;3.50;99.90;;;;;;4971976;28;20458;-84
2021/01/04 07:23:05;;;;;;;41.70;34.73;;;3.60;99.90;;;;;;4971848;28;20459;-84
2021/01/04 07:25:39;;;;;;;43.77;34.27;;;3.60;99.90;;;;;;4971739;28;20488;-83
2021/01/04 07:28:17;;;;;;;45.33;34.53;;;3.60;99.90;;;;;;4971957;28;20532;-90
2021/01/04 07:30:51;;;;;;;41.60;33.40;;;3.60;99.90;;;;;;4971891;28;20815;-83
2021/01/04 07:33:28;;;;;;;39.60;33.00;;;3.70;99.90;;;;;;4971892;28;20458;-84
2021/01/04 07:36:03;;;;;;;39.80;34.13;;;3.70;99.90;;;;;;4971552;28;20455;-81
2021/01/04 07:38:49;;;;;;;40.77;34.30;;;3.60;99.90;;;;;;4971501;28;20454;-82
2021/01/04 07:41:39;;;;;;;39.17;33.43;;;3.60;99.90;;;;;;4971756;28;20447;-82
2021/01/04 07:44:45;;;;;;;38.90;33.03;;;3.60;99.90;;;;;;4971633;28;20533;-82
2021/01/04 07:47:57;;;;;;;44.30;34.50;;;3.40;99.90;;;;;;4971401;28;20825;-83
2021/01/04 07:50:58;;;;;;;36.53;32.43;;;3.40;99.90;;;;;;4978886;28;20595;-86
2021/01/04 07:54:08;;;;;;;37.53;31.60;;;3.60;99.90;;;;;;4971431;28;20466;-83
2021/01/04 07:57:28;;;;;;;40.97;31.57;;;3.70;99.90;;;;;;4971320;28;20448;-82
2021/01/04 08:02:11;;;;;;;39.33;32.90;;;3.60;99.90;;;;;;5027543;28;20554;-87
2021/01/04 08:05:17;;;;;;;37.00;32.30;;;3.50;99.90;;;;;;5027463;28;20968;-87
2021/01/04 08:08:11;;;;;;;36.73;31.90;;;3.60;99.90;;;;;;5027499;28;21070;-87
2021/01/04 08:11:03;;;;;;;35.57;31.77;;;3.60;99.90;;;;;;5016819;28;20454;-82
2021/01/04 08:14:01;;;;;;;39.27;31.70;;;3.70;99.90;;;;;;5029284;28;20451;-77
2021/01/04 08:16:31;;;;;;;37.17;31.40;;;3.70;99.90;;;;;;5027677;28;20815;-82
2021/01/04 08:19:01;;;;;;;40.57;32.20;;;3.90;99.90;;;;;;5027911;28;20445;-80
2021/01/04 08:21:36;;;;;;;37.37;31.23;;;3.90;99.90;;;;;;5027171;28;20998;-81
2021/01/04 08:24:09;;;;;;;40.30;30.93;;;3.90;99.90;;;;;;5027298;28;20627;-82
2021/01/04 08:26:56;;;;;;;41.17;33.23;;;3.90;99.90;;;;;;5026950;28;20487;-73
2021/01/04 08:29:34;;;;;;;34.30;29.00;;;4.00;99.90;;;;;;5026782;28;20490;-72
2021/01/04 08:32:13;;;;;;;35.43;31.43;;;4.00;99.90;;;;;;5027166;28;20453;-72
2021/01/04 08:34:43;;;;;;;38.40;31.57;;;4.00;99.90;;;;;;5026990;28;20530;-72
2021/01/04 08:37:11;;;;;;;35.00;31.20;;;4.00;99.90;;;;;;5026857;28;20449;-73
2021/01/04 08:39:42;;;;;;;37.50;30.90;;;4.00;99.90;;;;;;5026295;28;20491;-73
2021/01/04 08:42:25;;;;;;;37.30;31.93;;;4.10;99.90;;;;;;5026521;28;20512;-73
2021/01/04 08:44:55;;;;;;;42.20;32.27;;;4.10;99.90;;;;;;5026211;28;20456;-70
2021/01/04 08:47:29;;;;;;;38.07;33.03;;;4.20;99.90;;;;;;5026657;28;20516;-77
2021/01/04 08:50:06;;;;;;;34.63;30.73;;;4.30;99.90;;;;;;5026379;28;20441;-76
2021/01/04 08:52:41;;;;;;;38.77;30.73;;;4.30;99.90;;;;;;5026750;28;20450;-77
2021/01/04 08:55:08;;;;;;;33.40;29.80;;;4.30;99.90;;;;;;5026327;28;20445;-76
2021/01/04 08:57:41;;;;;;;33.63;30.03;;;4.20;99.90;;;;;;5024896;28;20476;-76
2021/01/04 09:00:18;;;;;;;37.87;31.00;;;4.10;99.90;;;;;;5034280;28;20487;-76
2021/01/04 09:02:45;;;;;;;34.27;29.70;;;4.10;99.90;;;;;;5046713;28;20789;-76
2021/01/04 09:05:14;;;;;;;32.63;28.90;;;4.20;99.90;;;;;;5046421;28;20458;-77
2021/01/04 09:07:49;;;;;;;33.93;30.60;;;4.30;99.90;;;;;;5046605;28;20457;-78
2021/01/04 09:10:18;;;;;;;36.87;31.23;;;4.20;99.90;;;;;;5046795;28;20498;-78
2021/01/04 09:12:49;;;;;;;34.50;29.10;;;4.30;99.90;;;;;;5034059;28;20451;-78
2021/01/04 09:15:32;;;;;;;35.37;31.30;;;4.50;99.90;;;;;;5033493;28;20446;-78
2021/01/04 09:18:22;;;;;;;38.90;31.90;;;4.60;99.90;;;;;;5032894;28;20485;-78
2021/01/04 09:20:53;;;;;;;33.23;29.80;;;4.70;99.90;;;;;;5033266;28;20550;-78
2021/01/04 09:23:40;;;;;;;32.37;28.87;;;4.70;99.90;;;;;;5033021;28;20804;-78
2021/01/04 09:26:28;;;;;;;33.87;30.27;;;4.70;99.90;;;;;;5025077;28;20494;-78
2021/01/04 09:29:13;;;;;;;35.20;31.37;;;4.70;99.90;;;;;;5032668;28;20527;-78
2021/01/04 09:31:45;;;;;;;33.63;30.17;;;4.80;99.90;;;;;;5032806;28;20453;-78
2021/01/04 09:34:13;;;;;;;34.10;30.57;;;4.90;99.90;;;;;;5032774;28;20446;-78
2021/01/04 09:36:41;;;;;;;34.80;31.13;;;5.10;99.90;;;;;;5032625;28;20481;-78
2021/01/04 09:39:10;;;;;;;31.97;28.47;;;5.20;99.90;;;;;;5032665;28;20452;-79
2021/01/04 09:41:37;;;;;;;36.27;30.53;;;5.20;99.90;;;;;;5032515;28;20501;-78
2021/01/04 09:44:05;;;;;;;32.87;29.27;;;5.30;99.90;;;;;;5032676;28;20460;-78
2021/01/04 09:46:41;;;;;;;33.83;30.03;;;5.40;99.90;;;;;;5030944;28;20449;-78
2021/01/04 09:49:13;;;;;;;32.50;29.13;;;5.40;99.90;;;;;;5030807;28;20484;-78
2021/01/04 09:51:43;;;;;;;36.63;32.70;;;5.50;99.90;;;;;;5032613;28;20821;-78
2021/01/04 09:54:14;;;;;;;31.13;27.87;;;5.50;99.90;;;;;;5032236;28;20451;-78
2021/01/04 09:56:41;;;;;;;34.03;30.53;;;5.60;99.90;;;;;;5032366;28;20946;-78
2021/01/04 09:59:09;;;;;;;36.30;32.60;;;5.70;99.90;;;;;;5032193;28;20444;-77
2021/01/04 10:01:45;;;;;;;31.33;28.03;;;5.70;99.90;;;;;;5032133;28;21013;-77
2021/01/04 10:04:12;;;;;;;33.07;29.57;;;5.70;99.90;;;;;;5032397;28;20809;-76
2021/01/04 10:06:40;;;;;;;32.70;29.23;;;5.70;99.90;;;;;;5032253;28;20542;-77
2021/01/04 10:09:13;;;;;;;35.50;29.70;;;5.50;99.90;;;;;;5032130;28;20824;-77
2021/01/04 10:11:40;;;;;;;32.77;29.67;;;5.60;99.90;;;;;;5032379;28;20448;-77
2021/01/04 10:14:08;;;;;;;32.90;29.70;;;5.80;99.90;;;;;;5032105;28;20456;-77
2021/01/04 10:16:38;;;;;;;32.33;29.10;;;5.90;99.90;;;;;;5032365;28;20448;-75
2021/01/04 10:19:11;;;;;;;29.90;27.10;;;5.80;99.90;;;;;;5032097;28;20453;-76
2021/01/04 10:22:26;;;;;;;32.87;29.43;;;5.80;99.90;;;;;;5031958;28;20483;-77
2021/01/04 10:24:57;;;;;;;34.80;30.97;;;5.90;99.90;;;;;;5023667;28;20460;-77
2021/01/04 10:27:26;;;;;;;32.57;29.33;;;5.80;99.90;;;;;;5031841;28;20993;-77
2021/01/04 10:29:55;;;;;;;32.73;29.53;;;5.90;99.90;;;;;;5031043;28;20467;-76
2021/01/04 10:32:24;;;;;;;32.73;29.43;;;6.00;99.90;;;;;;5031472;28;20942;-77
2021/01/04 10:34:52;;;;;;;31.90;28.63;;;5.80;99.90;;;;;;5031474;28;20463;-77
2021/01/04 10:37:44;;;;;;;33.20;29.77;;;5.90;99.90;;;;;;5031882;28;20456;-77
2021/01/04 10:40:14;;;;;;;32.23;28.80;;;5.80;99.90;;;;;;5008602;28;20609;-79
2021/01/04 10:42:43;;;;;;;32.03;28.27;;;5.90;99.90;;;;;;5031646;28;20539;-77
2021/01/04 10:45:15;;;;;;;31.07;27.90;;;5.60;99.90;;;;;;5031605;28;20464;-78
2021/01/04 10:47:48;;;;;;;32.37;28.40;;;5.40;99.90;;;;;;5025426;28;20833;-77
2021/01/04 10:50:20;;;;;;;31.17;27.77;;;5.40;99.90;;;;;;5024684;28;20473;-77
2021/01/04 10:52:55;;;;;;;29.23;26.20;;;5.20;99.90;;;;;;5015024;28;20456;-77
2021/01/04 10:55:25;;;;;;;31.37;28.30;;;5.30;99.90;;;;;;5014316;28;20453;-77
2021/01/04 10:57:56;;;;;;;31.07;27.87;;;5.30;99.90;;;;;;5031480;28;20456;-77
2021/01/04 11:00:27;;;;;;;29.43;26.27;;;5.30;99.90;;;;;;5030587;28;20500;-77
2021/01/04 11:02:56;;;;;;;28.90;26.00;;;5.40;99.90;;;;;;5030172;28;20475;-77
2021/01/04 11:05:36;;;;;;;31.20;27.90;;;5.50;99.90;;;;;;5030895;28;20455;-77
2021/01/04 11:08:33;;;;;;;29.27;26.37;;;5.10;99.90;;;;;;5031737;28;20453;-78
2021/01/04 11:11:07;;;;;;;28.20;25.33;;;5.00;99.90;;;;;;4932147;29;21017;-78
2021/01/04 11:13:34;;;;;;;25.80;23.40;;;5.10;99.90;;;;;;5014015;28;20466;-77
2021/01/04 11:16:11;;;;;;;26.37;23.87;;;4.90;99.90;;;;;;5031475;28;20444;-77
2021/01/04 11:18:50;;;;;;;23.20;21.23;;;4.90;99.90;;;;;;5031197;28;20476;-77
2021/01/04 11:21:17;;;;;;;23.53;21.47;;;4.70;99.90;;;;;;5031333;28;20487;-77
2021/01/04 11:23:43;;;;;;;23.17;21.07;;;4.70;99.90;;;;;;5031328;28;20447;-77
2021/01/04 11:26:10;;;;;;;24.03;21.63;;;4.60;99.90;;;;;;5031058;28;20458;-77
2021/01/04 11:28:37;;;;;;;22.93;20.83;;;4.70;99.90;;;;;;5031119;28;20488;-77
2021/01/04 11:31:04;;;;;;;23.47;21.20;;;4.70;99.90;;;;;;5031230;28;20453;-77
2021/01/04 11:33:30;;;;;;;20.30;18.50;;;4.50;99.90;;;;;;5031186;28;20459;-77
2021/01/04 11:35:56;;;;;;;20.13;18.43;;;4.40;99.90;;;;;;5030763;28;20465;-77
2021/01/04 11:38:24;;;;;;;20.13;18.27;;;4.50;99.90;;;;;;5030985;28;20466;-77
2021/01/04 11:40:51;;;;;;;21.93;19.73;;;4.50;99.90;;;;;;5030801;28;21003;-77
2021/01/04 11:43:18;;;;;;;18.87;17.37;;;4.50;99.90;;;;;;5031018;28;20466;-77
2021/01/04 11:45:44;;;;;;;19.20;17.60;;;4.50;99.90;;;;;;5029419;28;20512;-77
2021/01/04 11:48:10;;;;;;;18.77;17.20;;;4.50;99.90;;;;;;5029482;28;20459;-77
2021/01/04 11:50:37;;;;;;;20.20;18.40;;;4.60;99.90;;;;;;5029438;28;20501;-76
2021/01/04 11:53:03;;;;;;;19.60;18.03;;;4.60;99.90;;;;;;5030700;28;20514;-77
2021/01/04 11:55:29;;;;;;;21.47;19.30;;;4.60;99.90;;;;;;5030116;28;20952;-77
2021/01/04 11:57:55;;;;;;;21.57;19.57;;;4.40;99.90;;;;;;5030536;28;20890;-76
2021/01/04 12:00:23;;;;;;;23.73;21.37;;;4.40;99.90;;;;;;5030164;28;20851;-76
2021/01/04 12:02:49;;;;;;;24.27;22.07;;;4.30;99.90;;;;;;5030333;28;20456;-77
2021/01/04 12:05:16;;;;;;;24.70;22.30;;;4.30;99.90;;;;;;5030509;28;20813;-77
2021/01/04 12:07:43;;;;;;;27.13;24.53;;;4.20;99.90;;;;;;5030175;28;20458;-79
2021/01/04 12:10:11;;;;;;;24.47;22.07;;;4.20;99.90;;;;;;5029883;28;20444;-78
2021/01/04 12:12:37;;;;;;;25.30;22.80;;;4.10;99.90;;;;;;5030100;28;20520;-77
2021/01/04 12:15:04;;;;;;;27.17;24.13;;;4.20;99.90;;;;;;5030435;28;20463;-77
2021/01/04 12:17:32;;;;;;;24.00;21.70;;;4.20;99.90;;;;;;5030349;28;20456;-77
2021/01/04 12:19:58;;;;;;;24.93;22.43;;;4.10;99.90;;;;;;5030191;28;20491;-77
2021/01/04 12:22:24;;;;;;;25.20;22.50;;;4.10;99.90;;;;;;5030043;28;21011;-78
2021/01/04 12:24:50;;;;;;;24.73;22.40;;;4.10;99.90;;;;;;5030080;28;20966;-78
2021/01/04 12:27:18;;;;;;;25.40;22.73;;;4.10;99.90;;;;;;5030289;28;20463;-78
2021/01/04 12:29:45;;;;;;;23.43;21.30;;;4.10;99.90;;;;;;5030075;28;20461;-78
2021/01/04 12:32:12;;;;;;;25.97;23.33;;;4.00;99.90;;;;;;5029665;28;20464;-78
2021/01/04 12:34:40;;;;;;;24.47;21.93;;;4.00;99.90;;;;;;5029965;28;20468;-78
2021/01/04 12:37:06;;;;;;;24.97;22.50;;;4.00;99.90;;;;;;5030021;28;20499;-79
2021/01/04 12:39:33;;;;;;;26.13;23.57;;;4.00;99.90;;;;;;5030189;28;20458;-78
2021/01/04 12:41:59;;;;;;;24.80;22.30;;;4.00;99.90;;;;;;5030039;28;20537;-77
2021/01/04 12:44:25;;;;;;;27.60;24.80;;;4.00;99.90;;;;;;5030054;28;20824;-78
2021/01/04 12:46:52;;;;;;;25.10;22.60;;;4.00;99.90;;;;;;5031403;28;20456;-78
2021/01/04 12:49:20;;;;;;;25.40;22.90;;;3.90;99.90;;;;;;5033886;28;20955;-78
2021/01/04 12:51:48;;;;;;;26.97;24.07;;;4.00;99.90;;;;;;5033968;28;20896;-78
2021/01/04 12:54:16;;;;;;;25.10;22.50;;;3.90;99.90;;;;;;5033766;28;20985;-77
2021/01/04 12:56:46;;;;;;;29.00;26.20;;;3.80;99.90;;;;;;5033781;28;20812;-76
2021/01/04 12:59:12;;;;;;;27.67;23.90;;;3.90;99.90;;;;;;5033563;28;20463;-77
2021/01/04 13:01:39;;;;;;;28.63;25.83;;;3.80;99.90;;;;;;5033404;28;20585;-77
2021/01/04 13:04:06;;;;;;;30.10;26.80;;;3.80;99.90;;;;;;5033667;28;20510;-76
2021/01/04 13:06:33;;;;;;;29.37;26.43;;;3.90;99.90;;;;;;5033629;28;20453;-77
2021/01/04 13:09:00;;;;;;;28.33;25.30;;;4.00;99.90;;;;;;5033520;28;20454;-78
2021/01/04 13:11:27;;;;;;;27.23;24.43;;;3.90;99.90;;;;;;5033328;28;20470;-78
2021/01/04 13:13:53;;;;;;;27.23;24.43;;;3.80;99.90;;;;;;5033348;28;20558;-77
2021/01/04 13:16:19;;;;;;;26.20;23.60;;;3.80;99.90;;;;;;5033164;28;20453;-78
2021/01/04 13:18:45;;;;;;;25.00;22.43;;;3.90;99.90;;;;;;5033417;28;20453;-78
2021/01/04 13:21:19;;;;;;;25.57;23.27;;;3.90;99.90;;;;;;5033117;28;20488;-78
2021/01/04 13:23:46;;;;;;;25.03;22.33;;;4.00;99.90;;;;;;5033091;28;20449;-78
2021/01/04 13:26:14;;;;;;;25.57;23.07;;;4.10;99.90;;;;;;5033065;28;20460;-78
2021/01/04 13:28:40;;;;;;;25.03;22.73;;;4.10;99.90;;;;;;5032874;28;20753;-78
2021/01/04 13:31:07;;;;;;;24.67;22.27;;;4.00;99.90;;;;;;5033006;28;20452;-77
2021/01/04 13:33:33;;;;;;;25.37;22.80;;;4.00;99.90;;;;;;5032573;28;20455;-77
2021/01/04 13:35:59;;;;;;;24.10;22.00;;;4.00;99.90;;;;;;5032751;28;20496;-77
2021/01/04 13:38:26;;;;;;;24.27;22.10;;;4.00;99.90;;;;;;5032663;28;20459;-78
2021/01/04 13:40:52;;;;;;;26.30;23.50;;;3.80;99.90;;;;;;5032816;28;20501;-78
2021/01/04 13:43:20;;;;;;;26.13;23.60;;;3.90;99.90;;;;;;5032690;28;20825;-78
2021/01/04 13:45:46;;;;;;;24.03;21.63;;;3.80;99.90;;;;;;5019062;28;20481;-78
2021/01/04 13:48:12;;;;;;;25.03;22.50;;;3.80;99.90;;;;;;5031675;28;20458;-78
2021/01/04 13:50:38;;;;;;;25.50;22.80;;;3.70;99.90;;;;;;5030957;28;20715;-78
2021/01/04 13:53:04;;;;;;;24.57;22.30;;;3.70;99.90;;;;;;5032565;28;20827;-78
2021/01/04 13:55:30;;;;;;;25.10;22.47;;;3.70;99.90;;;;;;5032692;28;20464;-78
2021/01/04 13:57:57;;;;;;;26.33;23.80;;;3.80;99.90;;;;;;5032246;28;20448;-78
2021/01/04 14:00:24;;;;;;;23.53;21.23;;;3.90;99.90;;;;;;5031451;28;20494;-78
2021/01/04 14:02:50;;;;;;;25.23;22.90;;;4.00;99.90;;;;;;5031980;28;20456;-78
2021/01/04 14:05:17;;;;;;;25.67;22.73;;;3.90;99.90;;;;;;5032760;28;20452;-78
2021/01/04 14:07:43;;;;;;;24.83;22.50;;;3.90;99.90;;;;;;5032224;28;20453;-78
2021/01/04 14:10:10;;;;;;;24.83;22.37;;;3.90;99.90;;;;;;5032029;28;20464;-78
2021/01/04 14:12:36;;;;;;;26.00;23.60;;;3.90;99.90;;;;;;5032142;28;20509;-78
2021/01/04 14:15:03;;;;;;;24.60;22.10;;;3.80;99.90;;;;;;5032169;28;20457;-80
2021/01/04 14:17:30;;;;;;;25.83;23.13;;;3.70;99.90;;;;;;5032121;28;20843;-79
2021/01/04 14:19:56;;;;;;;25.50;22.87;;;3.60;99.90;;;;;;5031326;28;20515;-78
2021/01/04 14:22:23;;;;;;;25.10;22.80;;;3.60;99.90;;;;;;5027851;28;20499;-78
2021/01/04 14:24:49;;;;;;;29.90;25.00;;;3.60;99.90;;;;;;5031472;28;20559;-78
2021/01/04 14:27:15;;;;;;;24.67;22.03;;;3.50;99.90;;;;;;5031430;28;20525;-78
2021/01/04 14:29:42;;;;;;;24.97;22.47;;;3.40;99.90;;;;;;5028090;28;20489;-79
2021/01/04 14:32:10;;;;;;;23.13;20.63;;;3.40;99.90;;;;;;5031945;28;20452;-78
2021/01/04 14:34:37;;;;;;;24.87;21.30;;;3.40;99.90;;;;;;5029676;28;20454;-79
2021/01/04 14:37:03;;;;;;;24.90;22.47;;;3.30;99.90;;;;;;5030906;28;20799;-78
2021/01/04 14:39:29;;;;;;;24.83;22.33;;;3.40;99.90;;;;;;5031892;28;20818;-79
2021/01/04 14:41:58;;;;;;;25.20;22.77;;;3.40;99.90;;;;;;5029114;28;20491;-79
2021/01/04 14:44:24;;;;;;;24.83;22.03;;;3.30;99.90;;;;;;5031520;28;20558;-79
2021/01/04 14:46:50;;;;;;;24.17;21.97;;;3.30;99.90;;;;;;5031443;28;20448;-79
2021/01/04 14:49:16;;;;;;;25.43;22.73;;;3.30;99.90;;;;;;5031742;28;20457;-79
2021/01/04 14:51:46;;;;;;;26.57;23.23;;;3.20;99.90;;;;;;5031527;28;20451;-79
2021/01/04 14:54:13;;;;;;;24.67;22.27;;;3.20;99.90;;;;;;5031304;28;20532;-78
2021/01/04 14:56:39;;;;;;;26.77;24.13;;;3.20;99.90;;;;;;5031711;28;20828;-76
2021/01/04 14:59:06;;;;;;;26.47;23.90;;;3.20;99.90;;;;;;5031528;28;20938;-79
2021/01/04 15:01:38;;;;;;;25.57;22.87;;;3.20;99.90;;;;;;5031640;28;20993;-79
2021/01/04 15:04:04;;;;;;;26.53;23.90;;;3.20;99.90;;;;;;5031662;28;20455;-78
2021/01/04 15:06:31;;;;;;;28.73;25.70;;;3.20;99.90;;;;;;5031747;28;20816;-79
2021/01/04 15:08:58;;;;;;;27.37;24.63;;;3.30;99.90;;;;;;5031122;28;20814;-79
2021/01/04 15:11:24;;;;;;;27.30;24.60;;;3.20;99.90;;;;;;5031402;28;20452;-80
2021/01/04 15:13:50;;;;;;;29.03;25.30;;;3.20;99.90;;;;;;5030548;28;20452;-79
2021/01/04 15:16:17;;;;;;;25.23;22.83;;;3.20;99.90;;;;;;5031010;28;20471;-78
2021/01/04 15:18:43;;;;;;;25.93;23.57;;;3.20;99.90;;;;;;5031000;28;20452;-78
2021/01/04 15:21:12;;;;;;;26.73;23.93;;;3.20;99.90;;;;;;5030319;28;20496;-78
2021/01/04 15:23:38;;;;;;;27.57;24.87;;;3.20;99.90;;;;;;5030942;28;20453;-79
2021/01/04 15:26:05;;;;;;;30.83;27.50;;;3.20;99.90;;;;;;5030567;28;20572;-78
2021/01/04 15:28:31;;;;;;;31.57;28.37;;;3.20;99.90;;;;;;5030765;28;20464;-79
2021/01/04 15:30:57;;;;;;;30.50;27.27;;;3.20;99.90;;;;;;5030513;28;20445;-78
2021/01/04 15:33:24;;;;;;;33.13;29.73;;;3.20;99.90;;;;;;5030795;28;20457;-78
2021/01/04 15:35:50;;;;;;;31.30;27.87;;;3.20;99.90;;;;;;5030632;28;20506;-77
2021/01/04 15:38:16;;;;;;;34.50;27.77;;;3.10;99.90;;;;;;5030541;28;20467;-78
2021/01/04 15:40:42;;;;;;;30.53;27.40;;;3.20;99.90;;;;;;5030295;28;20485;-77
2021/01/04 15:43:09;;;;;;;32.57;28.40;;;3.20;99.90;;;;;;5030195;28;20456;-77
2021/01/04 15:45:35;;;;;;;36.20;26.00;;;3.20;99.90;;;;;;5030574;28;20461;-78
2021/01/04 15:48:02;;;;;;;30.53;27.33;;;3.10;99.90;;;;;;5030424;28;20471;-77
2021/01/04 15:50:28;;;;;;;31.13;25.80;;;3.10;99.90;;;;;;5030397;28;20456;-77
2021/01/04 15:52:57;;;;;;;30.53;26.77;;;3.00;99.90;;;;;;5030120;28;20465;-78
2021/01/04 15:55:23;;;;;;;29.00;25.77;;;3.10;99.90;;;;;;5030304;28;20955;-77
2021/01/04 15:57:52;;;;;;;29.00;26.00;;;3.10;99.90;;;;;;5030227;28;20456;-78
2021/01/04 16:00:20;;;;;;;28.27;25.53;;;2.90;99.90;;;;;;5030334;28;21013;-82
2021/01/04 16:02:46;;;;;;;33.20;29.77;;;2.90;99.90;;;;;;5031061;28;20461;-78
2021/01/04 16:05:14;;;;;;;27.63;24.80;;;2.80;99.90;;;;;;5030737;28;20445;-77
2021/01/04 16:07:40;;;;;;;30.00;26.77;;;2.90;99.90;;;;;;5030601;28;20453;-77
2021/01/04 16:10:08;;;;;;;31.10;26.40;;;2.90;99.90;;;;;;5030498;28;20504;-78
2021/01/04 16:12:34;;;;;;;29.87;26.77;;;2.90;99.90;;;;;;5030539;28;20453;-77
2021/01/04 16:15:01;;;;;;;31.77;28.03;;;2.90;99.90;;;;;;5030723;28;20492;-76
2021/01/04 16:17:28;;;;;;;29.57;26.40;;;2.90;99.90;;;;;;5025000;28;20453;-76
2021/01/04 16:19:54;;;;;;;32.97;27.60;;;2.80;99.90;;;;;;5020191;28;20844;-76
2021/01/04 16:22:20;;;;;;;36.40;29.03;;;2.80;99.90;;;;;;5020745;28;20486;-76
2021/01/04 16:24:47;;;;;;;31.00;27.07;;;2.80;99.90;;;;;;5023417;28;20450;-77
2021/01/04 16:27:13;;;;;;;33.77;28.70;;;2.90;99.90;;;;;;5024164;28;20449;-77
2021/01/04 16:29:41;;;;;;;30.70;27.47;;;2.80;99.90;;;;;;5022380;28;20465;-77
2021/01/04 16:32:10;;;;;;;29.10;25.90;;;2.80;99.90;;;;;;5023474;28;20803;-76
2021/01/04 16:34:37;;;;;;;28.20;24.50;;;2.80;99.90;;;;;;5022242;28;20978;-77
2021/01/04 16:37:07;;;;;;;30.27;26.73;;;2.80;99.90;;;;;;5022765;28;20888;-77
2021/01/04 16:39:35;;;;;;;28.27;25.30;;;2.80;99.90;;;;;;5030557;28;20453;-79
2021/01/04 16:42:03;;;;;;;28.77;24.03;;;2.80;99.90;;;;;;5033905;28;20893;-78
2021/01/04 16:44:30;;;;;;;30.57;27.33;;;2.80;99.90;;;;;;5033602;28;20457;-77
2021/01/04 16:46:57;;;;;;;30.67;25.20;;;2.80;99.90;;;;;;5033740;28;20495;-78
2021/01/04 16:49:23;;;;;;;27.70;24.80;;;2.90;99.90;;;;;;5033561;28;20832;-78
2021/01/04 16:51:51;;;;;;;27.63;24.93;;;2.90;99.90;;;;;;5033759;28;20449;-77
2021/01/04 16:54:17;;;;;;;28.13;25.20;;;2.90;99.90;;;;;;5033409;28;20449;-77
2021/01/04 16:56:43;;;;;;;29.47;26.37;;;2.90;99.90;;;;;;5033432;28;20452;-77
2021/01/04 16:59:10;;;;;;;26.67;24.10;;;2.90;99.90;;;;;;5033162;28;20453;-77